sensor_id;sensor_type;location;lat;lon;timestamp;noise_LAeq;noise_LA_min;noise_LA_max;noise_LA01;noise_LA95
70454;Laerm;57915;47.174;14.680;2023-04-30T00:00:45;52.52;45.81;57.93;;
70454;Laerm;57915;47.174;14.680;2023-04-30T00:01:47;53.23;43.95;64.06;;
70454;Laerm;57915;47.174;14.680;2023-04-30T00:02:47;49.41;44.01;60.04;;
70454;Laerm;57915;47.174;14.680;2023-04-30T00:03:49;55.21;43.61;66.38;;
70454;Laerm;57915;47.174;14.680;2023-04-30T00:04:49;45.12;42.59;47.97;;
70454;Laerm;57915;47.174;14.680;2023-04-30T00:05:51;44.75;41.87;59.02;;
70454;Laerm;57915;47.174;14.680;2023-04-30T00:06:52;44.38;41.71;47.88;;
70454;Laerm;57915;47.174;14.680;2023-04-30T00:07:53;44.23;41.19;49.63;;
70454;Laerm;57915;47.174;14.680;2023-04-30T00:08:54;47.59;42.20;55.51;;
70454;Laerm;57915;47.174;14.680;2023-04-30T00:09:55;52.46;44.75;64.29;;
70454;Laerm;57915;47.174;14.680;2023-04-30T00:10:56;55.95;45.38;65.92;;
70454;Laerm;57915;47.174;14.680;2023-04-30T00:11:59;45.51;41.81;49.62;;
70454;Laerm;57915;47.174;14.680;2023-04-30T00:12:59;43.52;41.56;46.33;;
70454;Laerm;57915;47.174;14.680;2023-04-30T00:14:01;43.66;41.05;46.46;;
70454;Laerm;57915;47.174;14.680;2023-04-30T00:15:02;43.73;41.35;48.52;;
70454;Laerm;57915;47.174;14.680;2023-04-30T00:16:04;43.49;41.32;46.91;;
70454;Laerm;57915;47.174;14.680;2023-04-30T00:17:05;48.80;44.45;56.10;;
70454;Laerm;57915;47.174;14.680;2023-04-30T00:18:06;45.99;43.55;50.26;;
70454;Laerm;57915;47.174;14.680;2023-04-30T00:19:07;46.11;43.41;49.12;;
70454;Laerm;57915;47.174;14.680;2023-04-30T00:20:09;45.66;43.13;48.81;;
70454;Laerm;57915;47.174;14.680;2023-04-30T00:21:11;45.25;42.26;52.24;;
70454;Laerm;57915;47.174;14.680;2023-04-30T00:22:11;45.61;42.39;50.55;;
70454;Laerm;57915;47.174;14.680;2023-04-30T00:23:13;55.35;42.64;66.56;;
70454;Laerm;57915;47.174;14.680;2023-04-30T00:24:13;47.03;44.24;50.38;;
70454;Laerm;57915;47.174;14.680;2023-04-30T00:25:15;45.98;42.73;49.02;;
70454;Laerm;57915;47.174;14.680;2023-04-30T00:26:16;57.56;42.00;70.16;;
70454;Laerm;57915;47.174;14.680;2023-04-30T00:27:18;45.13;42.60;48.09;;
70454;Laerm;57915;47.174;14.680;2023-04-30T00:28:19;44.10;41.71;49.10;;
70454;Laerm;57915;47.174;14.680;2023-04-30T00:29:20;45.28;42.26;49.42;;
70454;Laerm;57915;47.174;14.680;2023-04-30T00:30:22;45.39;43.27;55.33;;
70454;Laerm;57915;47.174;14.680;2023-04-30T00:31:23;45.48;42.03;62.30;;
70454;Laerm;57915;47.174;14.680;2023-04-30T00:32:24;45.35;43.28;48.08;;
70454;Laerm;57915;47.174;14.680;2023-04-30T00:33:24;54.46;42.27;66.67;;
70454;Laerm;57915;47.174;14.680;2023-04-30T00:34:26;44.97;42.81;47.98;;
70454;Laerm;57915;47.174;14.680;2023-04-30T00:35:26;45.81;43.13;60.59;;
70454;Laerm;57915;47.174;14.680;2023-04-30T00:36:28;44.74;42.02;49.04;;
70454;Laerm;57915;47.174;14.680;2023-04-30T00:37:28;45.71;42.20;48.59;;
70454;Laerm;57915;47.174;14.680;2023-04-30T00:38:30;44.32;41.50;47.86;;
70454;Laerm;57915;47.174;14.680;2023-04-30T00:39:30;44.31;42.28;47.46;;
70454;Laerm;57915;47.174;14.680;2023-04-30T00:40:32;44.53;42.34;46.61;;
70454;Laerm;57915;47.174;14.680;2023-04-30T00:41:33;45.19;41.80;49.57;;
70454;Laerm;57915;47.174;14.680;2023-04-30T00:42:36;45.00;41.80;48.11;;
70454;Laerm;57915;47.174;14.680;2023-04-30T00:43:37;46.08;43.29;49.53;;
70454;Laerm;57915;47.174;14.680;2023-04-30T00:44:39;47.00;43.45;51.56;;
70454;Laerm;57915;47.174;14.680;2023-04-30T00:45:39;44.85;41.82;48.93;;
70454;Laerm;57915;47.174;14.680;2023-04-30T00:46:41;45.71;42.53;50.41;;
70454;Laerm;57915;47.174;14.680;2023-04-30T00:47:41;45.07;41.73;48.70;;
70454;Laerm;57915;47.174;14.680;2023-04-30T00:48:43;44.80;42.06;48.18;;
70454;Laerm;57915;47.174;14.680;2023-04-30T00:49:43;44.51;41.89;50.02;;
70454;Laerm;57915;47.174;14.680;2023-04-30T00:50:45;54.03;42.58;65.16;;
70454;Laerm;57915;47.174;14.680;2023-04-30T00:51:46;44.70;42.13;50.33;;
70454;Laerm;57915;47.174;14.680;2023-04-30T00:52:47;44.11;41.78;47.08;;
70454;Laerm;57915;47.174;14.680;2023-04-30T00:53:48;44.99;42.34;47.51;;
70454;Laerm;57915;47.174;14.680;2023-04-30T00:54:50;43.47;41.39;45.72;;
70454;Laerm;57915;47.174;14.680;2023-04-30T00:55:52;43.53;40.73;46.43;;
70454;Laerm;57915;47.174;14.680;2023-04-30T00:56:54;42.82;40.60;45.09;;
70454;Laerm;57915;47.174;14.680;2023-04-30T00:57:56;44.43;41.83;48.49;;
70454;Laerm;57915;47.174;14.680;2023-04-30T00:58:58;44.06;41.38;47.39;;
70454;Laerm;57915;47.174;14.680;2023-04-30T00:59:59;43.60;40.44;50.63;;
70454;Laerm;57915;47.174;14.680;2023-04-30T01:01:00;42.95;41.04;46.44;;
70454;Laerm;57915;47.174;14.680;2023-04-30T01:02:02;43.19;40.69;48.63;;
70454;Laerm;57915;47.174;14.680;2023-04-30T01:03:03;43.52;40.88;49.35;;
70454;Laerm;57915;47.174;14.680;2023-04-30T01:04:04;44.96;42.65;47.89;;
70454;Laerm;57915;47.174;14.680;2023-04-30T01:05:06;44.69;42.22;48.88;;
70454;Laerm;57915;47.174;14.680;2023-04-30T01:06:07;61.05;42.30;75.44;;
70454;Laerm;57915;47.174;14.680;2023-04-30T01:07:08;46.21;43.75;49.58;;
70454;Laerm;57915;47.174;14.680;2023-04-30T01:08:09;46.01;43.21;50.10;;
70454;Laerm;57915;47.174;14.680;2023-04-30T01:09:10;44.26;42.27;47.23;;
70454;Laerm;57915;47.174;14.680;2023-04-30T01:10:11;45.31;42.47;49.27;;
70454;Laerm;57915;47.174;14.680;2023-04-30T01:11:16;44.65;42.66;46.92;;
70454;Laerm;57915;47.174;14.680;2023-04-30T01:12:22;53.63;41.40;66.31;;
70454;Laerm;57915;47.174;14.680;2023-04-30T01:13:28;44.23;41.17;46.57;;
70454;Laerm;57915;47.174;14.680;2023-04-30T01:14:32;43.60;41.92;45.40;;
70454;Laerm;57915;47.174;14.680;2023-04-30T01:15:37;44.34;42.16;48.04;;
70454;Laerm;57915;47.174;14.680;2023-04-30T01:16:42;44.70;42.60;46.91;;
70454;Laerm;57915;47.174;14.680;2023-04-30T01:17:49;45.45;43.11;47.30;;
70454;Laerm;57915;47.174;14.680;2023-04-30T01:18:54;44.83;42.23;46.96;;
70454;Laerm;57915;47.174;14.680;2023-04-30T01:19:56;45.18;42.45;47.99;;
70454;Laerm;57915;47.174;14.680;2023-04-30T01:20:59;44.05;41.93;46.16;;
70454;Laerm;57915;47.174;14.680;2023-04-30T01:22:02;45.05;42.72;47.95;;
70454;Laerm;57915;47.174;14.680;2023-04-30T01:23:07;57.90;42.45;71.24;;
70454;Laerm;57915;47.174;14.680;2023-04-30T01:24:17;43.01;41.57;44.77;;
70454;Laerm;57915;47.174;14.680;2023-04-30T01:25:34;43.01;41.20;45.46;;
70454;Laerm;57915;47.174;14.680;2023-04-30T01:26:52;43.22;41.36;44.89;;
70454;Laerm;57915;47.174;14.680;2023-04-30T01:28:00;43.75;41.57;54.09;;
70454;Laerm;57915;47.174;14.680;2023-04-30T01:29:01;58.15;42.37;72.30;;
70454;Laerm;57915;47.174;14.680;2023-04-30T01:30:02;43.59;42.10;45.49;;
70454;Laerm;57915;47.174;14.680;2023-04-30T01:31:10;43.19;41.39;46.02;;
70454;Laerm;57915;47.174;14.680;2023-04-30T01:32:11;43.40;41.26;46.14;;
70454;Laerm;57915;47.174;14.680;2023-04-30T01:33:12;43.56;41.50;47.21;;
70454;Laerm;57915;47.174;14.680;2023-04-30T01:34:13;42.60;41.10;44.20;;
70454;Laerm;57915;47.174;14.680;2023-04-30T01:35:15;42.18;40.40;44.02;;
70454;Laerm;57915;47.174;14.680;2023-04-30T01:36:19;42.13;40.34;43.77;;
70454;Laerm;57915;47.174;14.680;2023-04-30T01:37:23;42.72;40.64;46.54;;
70454;Laerm;57915;47.174;14.680;2023-04-30T01:38:33;45.54;42.97;48.94;;
70454;Laerm;57915;47.174;14.680;2023-04-30T01:39:46;46.21;42.42;49.38;;
70454;Laerm;57915;47.174;14.680;2023-04-30T01:40:52;44.77;41.69;51.63;;
70454;Laerm;57915;47.174;14.680;2023-04-30T01:42:01;44.62;41.56;48.70;;
70454;Laerm;57915;47.174;14.680;2023-04-30T01:43:08;44.09;41.83;46.93;;
70454;Laerm;57915;47.174;14.680;2023-04-30T01:44:16;44.35;42.46;46.49;;
70454;Laerm;57915;47.174;14.680;2023-04-30T01:45:30;45.97;41.79;51.16;;
70454;Laerm;57915;47.174;14.680;2023-04-30T01:46:32;49.64;42.88;57.30;;
70454;Laerm;57915;47.174;14.680;2023-04-30T01:47:37;57.70;41.74;70.47;;
70454;Laerm;57915;47.174;14.680;2023-04-30T01:48:39;42.35;40.85;44.16;;
70454;Laerm;57915;47.174;14.680;2023-04-30T01:49:46;43.19;41.25;47.66;;
70454;Laerm;57915;47.174;14.680;2023-04-30T01:50:52;43.46;41.66;48.99;;
70454;Laerm;57915;47.174;14.680;2023-04-30T01:51:59;44.32;41.26;47.35;;
70454;Laerm;57915;47.174;14.680;2023-04-30T01:53:04;43.82;41.96;47.09;;
70454;Laerm;57915;47.174;14.680;2023-04-30T01:54:08;44.79;42.29;48.19;;
70454;Laerm;57915;47.174;14.680;2023-04-30T01:55:13;45.24;41.50;51.13;;
70454;Laerm;57915;47.174;14.680;2023-04-30T01:56:17;44.30;41.59;47.35;;
70454;Laerm;57915;47.174;14.680;2023-04-30T01:57:25;44.63;42.20;47.96;;
70454;Laerm;57915;47.174;14.680;2023-04-30T01:58:27;44.16;41.54;47.37;;
70454;Laerm;57915;47.174;14.680;2023-04-30T01:59:30;43.79;41.74;48.50;;
70454;Laerm;57915;47.174;14.680;2023-04-30T02:00:32;43.28;41.23;45.60;;
70454;Laerm;57915;47.174;14.680;2023-04-30T02:01:34;43.49;41.95;45.31;;
70454;Laerm;57915;47.174;14.680;2023-04-30T02:02:35;45.85;41.58;50.95;;
70454;Laerm;57915;47.174;14.680;2023-04-30T02:03:36;50.35;43.21;62.34;;
70454;Laerm;57915;47.174;14.680;2023-04-30T02:04:36;44.71;41.34;51.95;;
70454;Laerm;57915;47.174;14.680;2023-04-30T02:05:38;43.86;41.55;46.55;;
70454;Laerm;57915;47.174;14.680;2023-04-30T02:06:38;44.01;40.59;47.47;;
70454;Laerm;57915;47.174;14.680;2023-04-30T02:07:41;44.48;42.10;46.73;;
70454;Laerm;57915;47.174;14.680;2023-04-30T02:08:43;44.43;42.37;46.73;;
70454;Laerm;57915;47.174;14.680;2023-04-30T02:09:44;45.07;42.62;47.77;;
70454;Laerm;57915;47.174;14.680;2023-04-30T02:10:45;44.73;42.04;47.49;;
70454;Laerm;57915;47.174;14.680;2023-04-30T02:11:46;58.97;41.77;70.65;;
70454;Laerm;57915;47.174;14.680;2023-04-30T02:12:47;48.46;41.43;66.43;;
70454;Laerm;57915;47.174;14.680;2023-04-30T02:13:50;45.00;42.42;47.67;;
70454;Laerm;57915;47.174;14.680;2023-04-30T02:14:50;43.91;42.08;46.03;;
70454;Laerm;57915;47.174;14.680;2023-04-30T02:15:53;43.29;41.52;46.23;;
70454;Laerm;57915;47.174;14.680;2023-04-30T02:16:53;44.36;42.29;46.84;;
70454;Laerm;57915;47.174;14.680;2023-04-30T02:17:55;43.42;41.70;45.26;;
70454;Laerm;57915;47.174;14.680;2023-04-30T02:18:55;43.77;41.44;46.08;;
70454;Laerm;57915;47.174;14.680;2023-04-30T02:19:56;43.74;41.42;49.22;;
70454;Laerm;57915;47.174;14.680;2023-04-30T02:20:57;44.49;42.04;47.00;;
70454;Laerm;57915;47.174;14.680;2023-04-30T02:21:59;44.77;41.78;47.83;;
70454;Laerm;57915;47.174;14.680;2023-04-30T02:22:59;44.10;41.62;48.13;;
70454;Laerm;57915;47.174;14.680;2023-04-30T02:24:01;44.69;42.14;50.76;;
70454;Laerm;57915;47.174;14.680;2023-04-30T02:25:01;43.35;40.79;47.56;;
70454;Laerm;57915;47.174;14.680;2023-04-30T02:26:03;43.45;41.17;46.64;;
70454;Laerm;57915;47.174;14.680;2023-04-30T02:27:03;45.46;41.41;51.58;;
70454;Laerm;57915;47.174;14.680;2023-04-30T02:28:05;45.22;42.25;48.70;;
70454;Laerm;57915;47.174;14.680;2023-04-30T02:29:07;43.56;40.60;53.20;;
70454;Laerm;57915;47.174;14.680;2023-04-30T02:30:08;45.18;41.88;54.82;;
70454;Laerm;57915;47.174;14.680;2023-04-30T02:31:09;47.63;42.95;55.24;;
70454;Laerm;57915;47.174;14.680;2023-04-30T02:32:10;55.49;49.48;61.75;;
70454;Laerm;57915;47.174;14.680;2023-04-30T02:33:11;53.46;43.05;61.22;;
70454;Laerm;57915;47.174;14.680;2023-04-30T02:34:12;45.44;41.84;57.84;;
70454;Laerm;57915;47.174;14.680;2023-04-30T02:35:13;46.57;42.26;55.18;;
70454;Laerm;57915;47.174;14.680;2023-04-30T02:36:14;45.61;42.03;55.35;;
70454;Laerm;57915;47.174;14.680;2023-04-30T02:37:15;46.16;42.35;60.14;;
70454;Laerm;57915;47.174;14.680;2023-04-30T02:38:16;44.91;41.70;56.18;;
70454;Laerm;57915;47.174;14.680;2023-04-30T02:39:17;55.18;42.12;68.91;;
70454;Laerm;57915;47.174;14.680;2023-04-30T02:40:18;50.76;42.18;65.71;;
70454;Laerm;57915;47.174;14.680;2023-04-30T02:41:19;46.58;42.35;56.43;;
70454;Laerm;57915;47.174;14.680;2023-04-30T02:42:21;50.38;43.36;64.68;;
70454;Laerm;57915;47.174;14.680;2023-04-30T02:43:21;52.34;42.09;65.04;;
70454;Laerm;57915;47.174;14.680;2023-04-30T02:44:24;58.97;43.23;69.30;;
70454;Laerm;57915;47.174;14.680;2023-04-30T02:45:25;52.46;41.67;67.87;;
70454;Laerm;57915;47.174;14.680;2023-04-30T02:46:26;52.49;41.94;65.99;;
70454;Laerm;57915;47.174;14.680;2023-04-30T02:47:26;51.98;41.62;66.64;;
70454;Laerm;57915;47.174;14.680;2023-04-30T02:48:28;52.51;41.96;66.01;;
70454;Laerm;57915;47.174;14.680;2023-04-30T02:49:28;58.30;41.59;69.97;;
70454;Laerm;57915;47.174;14.680;2023-04-30T02:50:30;51.24;42.22;65.53;;
70454;Laerm;57915;47.174;14.680;2023-04-30T02:51:30;52.02;42.40;66.65;;
70454;Laerm;57915;47.174;14.680;2023-04-30T02:52:32;52.72;42.51;67.07;;
70454;Laerm;57915;47.174;14.680;2023-04-30T02:53:33;52.83;43.90;66.29;;
70454;Laerm;57915;47.174;14.680;2023-04-30T02:54:34;54.65;43.70;69.33;;
70454;Laerm;57915;47.174;14.680;2023-04-30T02:55:35;56.15;43.21;67.44;;
70454;Laerm;57915;47.174;14.680;2023-04-30T02:56:37;54.89;42.84;71.28;;
70454;Laerm;57915;47.174;14.680;2023-04-30T02:57:38;53.59;43.91;67.79;;
70454;Laerm;57915;47.174;14.680;2023-04-30T02:58:39;54.56;42.93;70.49;;
70454;Laerm;57915;47.174;14.680;2023-04-30T02:59:42;52.01;42.53;68.51;;
70454;Laerm;57915;47.174;14.680;2023-04-30T03:00:45;59.94;41.90;72.68;;
70454;Laerm;57915;47.174;14.680;2023-04-30T03:01:45;59.98;43.08;72.80;;
70454;Laerm;57915;47.174;14.680;2023-04-30T03:02:47;56.98;43.74;69.19;;
70454;Laerm;57915;47.174;14.680;2023-04-30T03:03:47;55.01;42.99;70.05;;
70454;Laerm;57915;47.174;14.680;2023-04-30T03:04:49;50.85;42.09;65.02;;
70454;Laerm;57915;47.174;14.680;2023-04-30T03:05:49;47.09;41.91;56.05;;
70454;Laerm;57915;47.174;14.680;2023-04-30T03:06:51;47.43;41.40;54.66;;
70454;Laerm;57915;47.174;14.680;2023-04-30T03:07:51;52.62;42.30;67.69;;
70454;Laerm;57915;47.174;14.680;2023-04-30T03:08:53;53.67;43.12;67.34;;
70454;Laerm;57915;47.174;14.680;2023-04-30T03:09:53;53.69;42.27;65.83;;
70454;Laerm;57915;47.174;14.680;2023-04-30T03:10:55;53.61;43.33;66.44;;
70454;Laerm;57915;47.174;14.680;2023-04-30T03:11:55;55.02;43.37;69.42;;
70454;Laerm;57915;47.174;14.680;2023-04-30T03:12:56;56.87;44.80;68.53;;
70454;Laerm;57915;47.174;14.680;2023-04-30T03:14:00;59.36;44.35;69.49;;
70454;Laerm;57915;47.174;14.680;2023-04-30T03:15:03;52.87;43.46;66.26;;
70454;Laerm;57915;47.174;14.680;2023-04-30T03:16:04;53.91;43.93;73.48;;
70454;Laerm;57915;47.174;14.680;2023-04-30T03:17:05;54.07;43.69;66.29;;
70454;Laerm;57915;47.174;14.680;2023-04-30T03:18:06;54.04;43.88;67.29;;
70454;Laerm;57915;47.174;14.680;2023-04-30T03:19:07;58.32;44.29;70.12;;
70454;Laerm;57915;47.174;14.680;2023-04-30T03:20:08;57.30;43.13;69.12;;
70454;Laerm;57915;47.174;14.680;2023-04-30T03:21:10;53.26;43.74;68.31;;
70454;Laerm;57915;47.174;14.680;2023-04-30T03:22:10;57.35;44.96;67.96;;
70454;Laerm;57915;47.174;14.680;2023-04-30T03:23:12;52.36;43.25;63.25;;
70454;Laerm;57915;47.174;14.680;2023-04-30T03:24:12;51.43;43.00;64.75;;
70454;Laerm;57915;47.174;14.680;2023-04-30T03:25:14;52.01;42.72;64.60;;
70454;Laerm;57915;47.174;14.680;2023-04-30T03:26:14;51.74;42.78;63.95;;
70454;Laerm;57915;47.174;14.680;2023-04-30T03:27:16;52.41;43.30;65.57;;
70454;Laerm;57915;47.174;14.680;2023-04-30T03:28:16;52.65;44.22;65.24;;
70454;Laerm;57915;47.174;14.680;2023-04-30T03:29:18;52.96;43.57;64.90;;
70454;Laerm;57915;47.174;14.680;2023-04-30T03:30:20;51.55;43.05;63.84;;
70454;Laerm;57915;47.174;14.680;2023-04-30T03:31:21;51.81;43.60;63.23;;
70454;Laerm;57915;47.174;14.680;2023-04-30T03:32:22;57.36;43.93;68.54;;
70454;Laerm;57915;47.174;14.680;2023-04-30T03:33:24;52.29;43.00;68.86;;
70454;Laerm;57915;47.174;14.680;2023-04-30T03:34:25;51.92;43.25;64.79;;
70454;Laerm;57915;47.174;14.680;2023-04-30T03:35:26;51.82;42.74;63.16;;
70454;Laerm;57915;47.174;14.680;2023-04-30T03:36:27;58.49;44.50;70.21;;
70454;Laerm;57915;47.174;14.680;2023-04-30T03:37:28;52.72;43.69;64.46;;
70454;Laerm;57915;47.174;14.680;2023-04-30T03:38:29;52.84;43.03;67.24;;
70454;Laerm;57915;47.174;14.680;2023-04-30T03:39:30;53.35;41.89;66.55;;
70454;Laerm;57915;47.174;14.680;2023-04-30T03:40:31;53.93;42.45;65.61;;
70454;Laerm;57915;47.174;14.680;2023-04-30T03:41:32;54.60;43.44;67.10;;
70454;Laerm;57915;47.174;14.680;2023-04-30T03:42:33;60.07;42.98;71.50;;
70454;Laerm;57915;47.174;14.680;2023-04-30T03:43:34;45.51;42.15;55.79;;
70454;Laerm;57915;47.174;14.680;2023-04-30T03:44:35;57.47;41.50;67.36;;
70454;Laerm;57915;47.174;14.680;2023-04-30T03:45:39;43.64;40.21;53.82;;
70454;Laerm;57915;47.174;14.680;2023-04-30T03:46:40;42.62;40.46;47.31;;
70454;Laerm;57915;47.174;14.680;2023-04-30T03:47:42;41.93;40.17;45.47;;
70454;Laerm;57915;47.174;14.680;2023-04-30T03:48:42;43.52;40.63;52.01;;
70454;Laerm;57915;47.174;14.680;2023-04-30T03:49:44;47.07;40.84;54.49;;
70454;Laerm;57915;47.174;14.680;2023-04-30T03:50:44;45.24;40.49;54.14;;
70454;Laerm;57915;47.174;14.680;2023-04-30T03:51:46;44.75;40.03;58.41;;
70454;Laerm;57915;47.174;14.680;2023-04-30T03:52:47;45.48;40.53;58.09;;
70454;Laerm;57915;47.174;14.680;2023-04-30T03:53:48;55.24;42.57;69.63;;
70454;Laerm;57915;47.174;14.680;2023-04-30T03:54:49;53.07;40.62;67.58;;
70454;Laerm;57915;47.174;14.680;2023-04-30T03:55:50;53.15;40.24;67.00;;
70454;Laerm;57915;47.174;14.680;2023-04-30T03:56:51;55.59;41.25;67.67;;
70454;Laerm;57915;47.174;14.680;2023-04-30T03:57:53;52.26;40.30;67.95;;
70454;Laerm;57915;47.174;14.680;2023-04-30T03:58:53;58.28;40.42;70.83;;
70454;Laerm;57915;47.174;14.680;2023-04-30T03:59:55;51.21;40.42;67.15;;
70454;Laerm;57915;47.174;14.680;2023-04-30T04:00:57;53.82;40.36;68.24;;
70454;Laerm;57915;47.174;14.680;2023-04-30T04:01:58;49.67;39.77;64.65;;
70454;Laerm;57915;47.174;14.680;2023-04-30T04:02:59;42.03;39.99;51.98;;
70454;Laerm;57915;47.174;14.680;2023-04-30T04:04:01;57.25;41.00;69.83;;
70454;Laerm;57915;47.174;14.680;2023-04-30T04:05:02;43.85;40.52;56.39;;
70454;Laerm;57915;47.174;14.680;2023-04-30T04:06:04;52.37;39.85;64.48;;
70454;Laerm;57915;47.174;14.680;2023-04-30T04:07:04;42.36;39.87;53.26;;
70454;Laerm;57915;47.174;14.680;2023-04-30T04:08:07;42.47;39.87;51.70;;
70454;Laerm;57915;47.174;14.680;2023-04-30T04:09:07;54.39;40.33;65.42;;
70454;Laerm;57915;47.174;14.680;2023-04-30T04:10:09;49.57;40.08;64.13;;
70454;Laerm;57915;47.174;14.680;2023-04-30T04:11:13;50.60;40.40;64.44;;
70454;Laerm;57915;47.174;14.680;2023-04-30T04:12:14;53.73;40.55;65.51;;
70454;Laerm;57915;47.174;14.680;2023-04-30T04:13:15;47.36;40.15;63.01;;
70454;Laerm;57915;47.174;14.680;2023-04-30T04:14:16;58.14;40.52;72.11;;
70454;Laerm;57915;47.174;14.680;2023-04-30T04:15:17;44.90;40.36;58.60;;
70454;Laerm;57915;47.174;14.680;2023-04-30T04:16:20;45.11;40.56;55.83;;
70454;Laerm;57915;47.174;14.680;2023-04-30T04:17:21;45.30;40.46;57.90;;
70454;Laerm;57915;47.174;14.680;2023-04-30T04:18:22;55.79;40.54;65.51;;
70454;Laerm;57915;47.174;14.680;2023-04-30T04:19:24;54.61;40.52;68.19;;
70454;Laerm;57915;47.174;14.680;2023-04-30T04:20:24;47.40;40.68;62.04;;
70454;Laerm;57915;47.174;14.680;2023-04-30T04:21:26;53.25;41.08;65.90;;
70454;Laerm;57915;47.174;14.680;2023-04-30T04:22:27;43.68;41.44;54.69;;
70454;Laerm;57915;47.174;14.680;2023-04-30T04:23:29;47.02;41.65;62.18;;
70454;Laerm;57915;47.174;14.680;2023-04-30T04:24:29;49.58;42.67;57.19;;
70454;Laerm;57915;47.174;14.680;2023-04-30T04:25:34;51.30;42.93;56.32;;
70454;Laerm;57915;47.174;14.680;2023-04-30T04:26:35;49.52;42.03;56.99;;
70454;Laerm;57915;47.174;14.680;2023-04-30T04:27:37;47.67;41.21;60.25;;
70454;Laerm;57915;47.174;14.680;2023-04-30T04:28:37;54.94;41.83;65.35;;
70454;Laerm;57915;47.174;14.680;2023-04-30T04:29:39;53.57;41.77;63.38;;
70454;Laerm;57915;47.174;14.680;2023-04-30T04:30:40;57.81;42.57;68.27;;
70454;Laerm;57915;47.174;14.680;2023-04-30T04:31:43;56.17;42.91;68.27;;
70454;Laerm;57915;47.174;14.680;2023-04-30T04:32:44;56.38;42.79;69.07;;
70454;Laerm;57915;47.174;14.680;2023-04-30T04:33:50;54.89;42.61;67.96;;
70454;Laerm;57915;47.174;14.680;2023-04-30T04:34:57;53.22;41.12;66.41;;
70454;Laerm;57915;47.174;14.680;2023-04-30T04:35:57;48.17;41.50;62.65;;
70454;Laerm;57915;47.174;14.680;2023-04-30T04:36:59;51.30;41.21;63.05;;
70454;Laerm;57915;47.174;14.680;2023-04-30T04:38:00;51.03;42.00;64.70;;
70454;Laerm;57915;47.174;14.680;2023-04-30T04:39:02;47.55;40.75;57.59;;
70454;Laerm;57915;47.174;14.680;2023-04-30T04:40:03;47.08;40.46;60.54;;
70454;Laerm;57915;47.174;14.680;2023-04-30T04:41:05;55.09;39.99;67.74;;
70454;Laerm;57915;47.174;14.680;2023-04-30T04:42:05;61.78;40.40;76.21;;
70454;Laerm;57915;47.174;14.680;2023-04-30T04:43:09;57.56;40.97;70.00;;
70454;Laerm;57915;47.174;14.680;2023-04-30T04:44:11;53.37;41.82;67.42;;
70454;Laerm;57915;47.174;14.680;2023-04-30T04:45:12;48.50;40.47;65.13;;
70454;Laerm;57915;47.174;14.680;2023-04-30T04:46:14;43.90;40.43;55.43;;
70454;Laerm;57915;47.174;14.680;2023-04-30T04:47:18;43.29;40.05;58.22;;
70454;Laerm;57915;47.174;14.680;2023-04-30T04:48:20;56.73;40.59;69.13;;
70454;Laerm;57915;47.174;14.680;2023-04-30T04:49:22;48.04;40.59;62.15;;
70454;Laerm;57915;47.174;14.680;2023-04-30T04:50:22;57.65;40.65;70.03;;
70454;Laerm;57915;47.174;14.680;2023-04-30T04:51:24;57.63;40.55;71.03;;
70454;Laerm;57915;47.174;14.680;2023-04-30T04:52:24;45.33;40.45;57.18;;
70454;Laerm;57915;47.174;14.680;2023-04-30T04:53:26;44.10;40.29;52.46;;
70454;Laerm;57915;47.174;14.680;2023-04-30T04:54:26;47.85;40.82;60.70;;
70454;Laerm;57915;47.174;14.680;2023-04-30T04:55:28;56.06;40.69;66.87;;
70454;Laerm;57915;47.174;14.680;2023-04-30T04:56:28;52.86;40.14;67.20;;
70454;Laerm;57915;47.174;14.680;2023-04-30T04:57:30;46.06;40.25;61.07;;
70454;Laerm;57915;47.174;14.680;2023-04-30T04:58:30;52.48;40.48;66.59;;
70454;Laerm;57915;47.174;14.680;2023-04-30T04:59:34;61.38;40.80;73.64;;
70454;Laerm;57915;47.174;14.680;2023-04-30T05:00:34;46.20;40.40;59.05;;
70454;Laerm;57915;47.174;14.680;2023-04-30T05:01:36;53.03;40.92;64.01;;
70454;Laerm;57915;47.174;14.680;2023-04-30T05:02:38;59.08;40.35;70.33;;
70454;Laerm;57915;47.174;14.680;2023-04-30T05:03:40;46.25;40.03;59.21;;
70454;Laerm;57915;47.174;14.680;2023-04-30T05:04:40;43.41;39.74;52.22;;
70454;Laerm;57915;47.174;14.680;2023-04-30T05:05:46;57.55;39.78;69.95;;
70454;Laerm;57915;47.174;14.680;2023-04-30T05:06:46;62.50;40.21;73.92;;
70454;Laerm;57915;47.174;14.680;2023-04-30T05:07:47;49.07;39.97;67.14;;
70454;Laerm;57915;47.174;14.680;2023-04-30T05:08:51;46.68;40.08;56.80;;
70454;Laerm;57915;47.174;14.680;2023-04-30T05:09:53;48.28;39.85;62.47;;
70454;Laerm;57915;47.174;14.680;2023-04-30T05:10:53;53.79;40.55;65.97;;
70454;Laerm;57915;47.174;14.680;2023-04-30T05:11:55;46.45;41.24;61.29;;
70454;Laerm;57915;47.174;14.680;2023-04-30T05:12:56;54.80;40.73;72.30;;
70454;Laerm;57915;47.174;14.680;2023-04-30T05:14:00;67.00;41.60;80.35;;
70454;Laerm;57915;47.174;14.680;2023-04-30T05:15:01;52.94;40.64;62.18;;
70454;Laerm;57915;47.174;14.680;2023-04-30T05:16:03;47.67;41.91;58.81;;
70454;Laerm;57915;47.174;14.680;2023-04-30T05:17:04;54.37;41.80;65.33;;
70454;Laerm;57915;47.174;14.680;2023-04-30T05:18:07;56.33;42.88;68.28;;
70454;Laerm;57915;47.174;14.680;2023-04-30T05:19:07;51.16;41.49;66.58;;
70454;Laerm;57915;47.174;14.680;2023-04-30T05:20:10;61.00;42.79;78.57;;
70454;Laerm;57915;47.174;14.680;2023-04-30T05:21:10;63.11;41.52;80.25;;
70454;Laerm;57915;47.174;14.680;2023-04-30T05:22:12;59.88;44.19;68.88;;
70454;Laerm;57915;47.174;14.680;2023-04-30T05:23:14;51.29;41.07;64.02;;
70454;Laerm;57915;47.174;14.680;2023-04-30T05:24:15;47.40;40.64;63.80;;
70454;Laerm;57915;47.174;14.680;2023-04-30T05:25:16;54.68;40.28;66.77;;
70454;Laerm;57915;47.174;14.680;2023-04-30T05:26:17;56.42;40.63;69.48;;
70454;Laerm;57915;47.174;14.680;2023-04-30T05:27:19;44.62;40.22;64.85;;
70454;Laerm;57915;47.174;14.680;2023-04-30T05:28:20;56.18;40.07;67.94;;
70454;Laerm;57915;47.174;14.680;2023-04-30T05:29:21;44.88;40.02;60.38;;
70454;Laerm;57915;47.174;14.680;2023-04-30T05:30:22;55.12;40.20;67.13;;
70454;Laerm;57915;47.174;14.680;2023-04-30T05:31:23;59.83;41.32;70.55;;
70454;Laerm;57915;47.174;14.680;2023-04-30T05:32:25;47.10;40.09;58.46;;
70454;Laerm;57915;47.174;14.680;2023-04-30T05:33:28;45.18;40.00;57.25;;
70454;Laerm;57915;47.174;14.680;2023-04-30T05:34:28;56.11;40.25;69.21;;
70454;Laerm;57915;47.174;14.680;2023-04-30T05:35:30;43.99;40.54;55.25;;
70454;Laerm;57915;47.174;14.680;2023-04-30T05:36:30;59.02;41.76;70.84;;
70454;Laerm;57915;47.174;14.680;2023-04-30T05:37:32;59.46;40.33;72.80;;
70454;Laerm;57915;47.174;14.680;2023-04-30T05:38:32;43.63;39.67;59.85;;
70454;Laerm;57915;47.174;14.680;2023-04-30T05:39:34;60.32;39.82;70.38;;
70454;Laerm;57915;47.174;14.680;2023-04-30T05:40:34;55.91;40.04;66.82;;
70454;Laerm;57915;47.174;14.680;2023-04-30T05:41:36;57.25;39.50;68.24;;